Time;durP1;ratioP1;P1;durP2;ratioP2;P2;SDS_P1;SDS_P2;PMS_P1;PMS_P2;Temp;Humidity;BMP_temperature;BMP_pressure;BME280_temperature;BME280_humidity;BME280_pressure;Samples;Min_cycle;Max_cycle;Signal;HPM_P1;HPM_P2
2024/04/17 00:01:39;;;;;;;2.20;1.33;;;5.70;99.90;;;;;;5240358;27;20245;-65
2024/04/17 00:04:05;;;;;;;4.30;1.93;;;5.80;99.90;;;;;;5240565;27;20250;-65
2024/04/17 00:06:31;;;;;;;2.00;1.43;;;5.70;99.90;;;;;;5240501;27;20670;-65
2024/04/17 00:08:57;;;;;;;3.40;2.23;;;5.70;99.90;;;;;;5240195;27;20292;-64
2024/04/17 00:11:22;;;;;;;1.40;1.00;;;5.70;99.90;;;;;;5239495;27;20237;-63
2024/04/17 00:13:48;;;;;;;1.63;1.23;;;5.70;99.90;;;;;;5240322;27;20360;-64
2024/04/17 00:16:13;;;;;;;2.33;1.63;;;5.60;99.90;;;;;;5239818;27;20241;-64
2024/04/17 00:18:39;;;;;;;2.90;1.53;;;5.60;99.90;;;;;;5224813;27;20253;-64
2024/04/17 00:21:04;;;;;;;3.00;1.93;;;5.60;99.90;;;;;;5234298;27;20273;-64
2024/04/17 00:23:30;;;;;;;3.70;2.37;;;5.60;99.90;;;;;;5232061;27;20238;-63
2024/04/17 00:25:55;;;;;;;3.53;1.87;;;5.60;99.90;;;;;;5240034;27;20234;-64
2024/04/17 00:28:24;;;;;;;2.60;1.37;;;5.60;99.90;;;;;;5239900;27;20669;-63
2024/04/17 00:30:49;;;;;;;2.30;1.77;;;5.60;99.90;;;;;;5225669;27;20393;-64
2024/04/17 00:33:15;;;;;;;2.57;1.50;;;5.70;99.90;;;;;;5239991;27;20896;-64
2024/04/17 00:35:41;;;;;;;1.67;1.00;;;5.70;99.90;;;;;;5226714;27;20247;-64
2024/04/17 00:38:07;;;;;;;3.63;1.90;;;5.70;99.90;;;;;;5233738;27;20329;-64
2024/04/17 00:40:32;;;;;;;2.83;1.87;;;5.70;99.90;;;;;;5231128;27;20245;-64
2024/04/17 00:43:00;;;;;;;1.73;1.57;;;5.60;99.90;;;;;;5239399;27;20237;-64
2024/04/17 00:45:43;;;;;;;2.63;1.90;;;5.60;99.90;;;;;;5239900;27;20233;-64
2024/04/17 00:48:11;;;;;;;2.00;1.33;;;5.70;99.90;;;;;;5240086;27;20284;-64
2024/04/17 00:50:39;;;;;;;3.27;2.37;;;5.70;99.90;;;;;;5239048;27;20234;-64
2024/04/17 00:53:05;;;;;;;2.33;1.90;;;5.80;99.90;;;;;;5239642;27;20246;-64
2024/04/17 00:55:32;;;;;;;1.47;1.27;;;5.70;99.90;;;;;;5224245;27;20314;-64
2024/04/17 00:57:59;;;;;;;2.43;1.80;;;5.80;99.90;;;;;;5236829;27;20292;-64
2024/04/17 01:00:24;;;;;;;2.10;1.27;;;5.90;99.90;;;;;;5238804;27;20655;-64
2024/04/17 01:02:50;;;;;;;3.57;2.00;;;5.90;99.90;;;;;;5239592;27;20230;-64
2024/04/17 01:05:16;;;;;;;1.63;1.17;;;5.90;99.90;;;;;;5239499;27;20238;-64
2024/04/17 01:07:42;;;;;;;1.70;1.47;;;5.90;99.90;;;;;;5225612;27;20269;-64
2024/04/17 01:10:07;;;;;;;2.37;1.60;;;6.00;99.90;;;;;;5225305;27;20233;-64
2024/04/17 01:12:35;;;;;;;2.00;1.50;;;6.00;99.90;;;;;;5227455;27;20341;-64
2024/04/17 01:15:01;;;;;;;2.03;1.03;;;6.00;99.90;;;;;;5237485;27;20267;-64
2024/04/17 01:17:27;;;;;;;1.50;0.90;;;6.00;99.90;;;;;;5239229;27;20230;-64
2024/04/17 01:19:52;;;;;;;2.50;0.87;;;6.00;99.90;;;;;;5238272;27;20313;-63
2024/04/17 01:22:18;;;;;;;1.70;1.23;;;6.00;99.90;;;;;;5239328;27;20343;-63
2024/04/17 01:24:43;;;;;;;1.70;1.33;;;6.00;99.90;;;;;;5225433;27;20234;-64
2024/04/17 01:27:09;;;;;;;2.20;1.53;;;5.90;99.90;;;;;;5239505;27;20245;-65
2024/04/17 01:29:35;;;;;;;1.23;0.80;;;5.90;99.90;;;;;;5224657;27;20364;-64
2024/04/17 01:32:00;;;;;;;0.87;0.83;;;5.90;99.90;;;;;;5239208;27;20300;-64
2024/04/17 01:34:26;;;;;;;1.00;0.70;;;5.80;99.90;;;;;;5225374;27;20238;-64
2024/04/17 01:36:52;;;;;;;1.13;0.80;;;5.80;99.90;;;;;;5251300;27;20265;-64
2024/04/17 01:39:17;;;;;;;1.23;0.97;;;5.80;99.90;;;;;;5238854;27;20276;-64
2024/04/17 01:41:43;;;;;;;0.73;0.57;;;5.70;99.90;;;;;;5238060;27;20233;-64
2024/04/17 01:44:09;;;;;;;1.30;0.97;;;5.70;99.90;;;;;;5238536;27;20230;-64
2024/04/17 01:46:34;;;;;;;0.83;0.63;;;5.60;99.90;;;;;;5238849;27;20233;-63
2024/04/17 01:49:00;;;;;;;0.63;0.57;;;5.60;99.90;;;;;;5224881;27;20239;-64
2024/04/17 01:51:25;;;;;;;1.33;0.70;;;5.40;99.90;;;;;;5264699;27;20817;-64
2024/04/17 01:53:51;;;;;;;0.60;0.60;;;5.40;99.90;;;;;;5238792;27;20849;-64
2024/04/17 01:56:16;;;;;;;1.50;0.87;;;5.30;99.90;;;;;;5238516;27;20714;-64
2024/04/17 01:58:42;;;;;;;1.97;1.07;;;5.20;99.90;;;;;;5238125;27;20256;-64
2024/04/17 02:01:08;;;;;;;2.23;0.93;;;5.10;99.90;;;;;;5224416;27;20276;-64
2024/04/17 02:03:36;;;;;;;1.00;0.50;;;5.00;99.90;;;;;;5238585;27;20288;-64
2024/04/17 02:06:01;;;;;;;1.10;0.50;;;4.90;99.90;;;;;;5238449;27;20267;-64
2024/04/17 02:08:27;;;;;;;3.27;1.77;;;4.90;99.90;;;;;;5237742;27;20735;-64
2024/04/17 02:10:52;;;;;;;0.57;0.53;;;4.80;99.90;;;;;;5238935;27;20234;-64
2024/04/17 02:13:18;;;;;;;0.90;0.70;;;4.80;99.90;;;;;;5242238;27;20283;-63
2024/04/17 02:15:43;;;;;;;0.67;0.67;;;4.80;99.90;;;;;;5241872;27;20340;-64
2024/04/17 02:18:09;;;;;;;0.97;0.50;;;4.70;99.90;;;;;;5241861;27;20268;-64
2024/04/17 02:20:34;;;;;;;0.50;0.43;;;4.70;99.90;;;;;;5241160;27;20348;-63
2024/04/17 02:23:00;;;;;;;0.50;0.50;;;4.60;99.90;;;;;;5228121;27;20289;-64
2024/04/17 02:25:25;;;;;;;1.70;0.60;;;4.60;99.90;;;;;;5241440;27;20234;-64
2024/04/17 02:27:51;;;;;;;0.73;0.70;;;4.60;99.90;;;;;;5241404;27;20238;-64
2024/04/17 02:30:17;;;;;;;0.47;0.37;;;4.60;99.90;;;;;;5240935;27;20297;-64
2024/04/17 02:32:42;;;;;;;0.77;0.57;;;4.60;99.90;;;;;;5241708;27;20234;-64
2024/04/17 02:35:08;;;;;;;1.07;0.43;;;4.50;99.90;;;;;;5235900;27;20592;-63
2024/04/17 02:37:33;;;;;;;0.70;0.63;;;4.40;99.90;;;;;;5222172;27;20251;-63
2024/04/17 02:39:59;;;;;;;0.60;0.60;;;4.40;99.90;;;;;;5238772;27;20234;-63
2024/04/17 02:42:24;;;;;;;0.60;0.57;;;4.40;99.90;;;;;;5241916;27;20234;-63
2024/04/17 02:44:50;;;;;;;0.43;0.43;;;4.40;99.90;;;;;;5253733;27;20788;-64
2024/04/17 02:47:15;;;;;;;0.40;0.40;;;4.40;99.90;;;;;;5241613;27;20226;-64
2024/04/17 02:49:41;;;;;;;0.37;0.37;;;4.30;99.90;;;;;;5240499;27;20309;-64
2024/04/17 02:52:06;;;;;;;0.40;0.40;;;4.30;99.90;;;;;;5222271;27;20242;-64
2024/04/17 02:54:32;;;;;;;1.20;1.10;;;4.30;99.90;;;;;;5230908;27;20276;-64
2024/04/17 02:56:57;;;;;;;0.47;0.43;;;4.20;99.90;;;;;;5241151;27;20669;-64
2024/04/17 02:59:23;;;;;;;1.50;1.13;;;4.20;99.90;;;;;;5225312;27;20288;-64
2024/04/17 03:01:48;;;;;;;0.97;0.73;;;4.20;99.90;;;;;;5226931;27;20234;-64
2024/04/17 03:04:14;;;;;;;1.17;0.73;;;4.20;99.90;;;;;;5241333;27;20242;-64
2024/04/17 03:06:39;;;;;;;0.50;0.50;;;4.20;99.90;;;;;;5240947;27;20245;-64
2024/04/17 03:09:05;;;;;;;2.40;0.83;;;4.20;99.90;;;;;;5240742;27;20310;-64
2024/04/17 03:11:30;;;;;;;0.70;0.57;;;4.10;99.90;;;;;;5240552;27;20241;-63
2024/04/17 03:13:56;;;;;;;1.17;0.77;;;4.20;99.90;;;;;;5226950;27;20285;-64
2024/04/17 03:16:22;;;;;;;0.83;0.73;;;4.10;99.90;;;;;;5241394;27;20234;-63
2024/04/17 03:18:47;;;;;;;1.20;0.70;;;4.10;99.90;;;;;;5240481;27;20285;-64
2024/04/17 03:21:13;;;;;;;1.50;0.83;;;4.10;99.90;;;;;;5239922;27;20636;-64
2024/04/17 03:23:38;;;;;;;0.90;0.63;;;4.10;99.90;;;;;;5241099;27;20348;-64
2024/04/17 03:26:04;;;;;;;1.93;1.07;;;4.10;99.90;;;;;;5240499;27;20297;-64
2024/04/17 03:28:30;;;;;;;1.30;0.80;;;4.10;99.90;;;;;;5240634;27;20245;-63
2024/04/17 03:30:59;;;;;;;0.93;0.90;;;4.10;99.90;;;;;;5240261;27;20719;-63
2024/04/17 03:33:24;;;;;;;2.43;0.97;;;4.00;99.90;;;;;;5240780;27;20733;-63
2024/04/17 03:35:57;;;;;;;1.27;1.03;;;4.10;99.90;;;;;;5240638;27;20726;-64
2024/04/17 03:38:23;;;;;;;0.40;0.40;;;4.10;99.90;;;;;;5240651;27;20246;-63
2024/04/17 03:40:49;;;;;;;0.40;0.40;;;4.20;99.90;;;;;;5239982;27;20242;-64
2024/04/17 03:43:15;;;;;;;1.87;1.73;;;4.20;99.90;;;;;;5240652;27;20734;-63
2024/04/17 03:45:41;;;;;;;0.40;0.40;;;4.20;99.90;;;;;;5240810;27;20617;-63
2024/04/17 03:48:07;;;;;;;3.23;1.10;;;4.10;99.90;;;;;;5240237;27;20616;-63
2024/04/17 03:50:32;;;;;;;0.97;0.80;;;4.10;99.90;;;;;;5239904;27;20234;-63
2024/04/17 03:52:58;;;;;;;2.40;1.63;;;4.10;99.90;;;;;;5240354;27;20597;-64
2024/04/17 03:55:23;;;;;;;0.60;0.60;;;4.10;99.90;;;;;;5240428;27;20238;-64
2024/04/17 03:57:49;;;;;;;1.30;0.90;;;4.00;99.90;;;;;;5240067;27;20719;-64
2024/04/17 04:00:15;;;;;;;1.33;0.80;;;4.00;99.90;;;;;;5239819;27;20747;-63
2024/04/17 04:02:41;;;;;;;1.33;0.97;;;3.90;99.90;;;;;;5226869;27;20336;-63
2024/04/17 04:05:06;;;;;;;0.67;0.67;;;3.90;99.90;;;;;;5240405;27;20246;-63
2024/04/17 04:07:32;;;;;;;1.43;0.70;;;3.90;99.90;;;;;;5240088;27;20613;-63
2024/04/17 04:09:58;;;;;;;1.70;0.93;;;3.80;99.90;;;;;;5239543;27;20352;-63
2024/04/17 04:12:23;;;;;;;1.30;0.87;;;3.80;99.90;;;;;;5226683;27;20237;-63
2024/04/17 04:14:49;;;;;;;0.60;0.60;;;3.80;99.90;;;;;;5240178;27;20280;-63
2024/04/17 04:17:15;;;;;;;0.97;0.67;;;3.80;99.90;;;;;;5240566;27;20273;-63
2024/04/17 04:19:40;;;;;;;0.80;0.60;;;3.80;99.90;;;;;;5239546;27;20283;-63
2024/04/17 04:22:06;;;;;;;4.13;1.13;;;3.80;99.90;;;;;;5240162;27;20370;-63
2024/04/17 04:24:31;;;;;;;1.37;0.93;;;3.80;99.90;;;;;;5229734;27;20635;-63
2024/04/17 04:26:57;;;;;;;0.57;0.57;;;3.80;99.90;;;;;;5236571;27;20257;-64
2024/04/17 04:29:22;;;;;;;1.00;0.50;;;3.80;99.90;;;;;;5228074;27;20772;-63
2024/04/17 04:31:48;;;;;;;1.67;1.10;;;3.80;99.90;;;;;;5232693;27;20234;-63
2024/04/17 04:34:13;;;;;;;1.57;0.87;;;3.80;99.90;;;;;;5238091;27;20292;-63
2024/04/17 04:36:39;;;;;;;1.53;1.30;;;3.80;99.90;;;;;;5225566;27;20837;-64
2024/04/17 04:39:05;;;;;;;2.63;0.93;;;3.80;99.90;;;;;;5238794;27;20356;-63
2024/04/17 04:41:30;;;;;;;1.40;1.17;;;3.80;99.90;;;;;;5217469;27;20229;-63
2024/04/17 04:43:56;;;;;;;0.83;0.77;;;3.90;99.90;;;;;;5215551;27;20774;-63
2024/04/17 04:46:21;;;;;;;1.83;1.20;;;3.80;99.90;;;;;;5227080;27;20792;-63
2024/04/17 04:48:47;;;;;;;1.13;0.80;;;3.90;99.90;;;;;;5250501;27;20725;-64
2024/04/17 04:51:12;;;;;;;1.70;1.00;;;3.90;99.90;;;;;;5238446;27;20280;-63
2024/04/17 04:53:38;;;;;;;2.23;1.53;;;3.90;99.90;;;;;;5239135;27;20280;-63
2024/04/17 04:56:05;;;;;;;0.73;0.73;;;3.90;99.90;;;;;;5239365;27;20237;-64
2024/04/17 04:58:31;;;;;;;0.80;0.80;;;3.90;99.90;;;;;;5238458;27;20238;-63
2024/04/17 05:00:57;;;;;;;0.90;0.53;;;4.00;99.90;;;;;;5224953;27;20238;-63
2024/04/17 05:03:22;;;;;;;5.73;2.07;;;4.00;99.90;;;;;;5238980;27;20233;-64
2024/04/17 05:05:48;;;;;;;2.20;1.10;;;4.10;99.90;;;;;;5224580;27;20277;-63
2024/04/17 05:08:14;;;;;;;1.23;0.83;;;4.20;99.90;;;;;;5238911;27;20351;-63
2024/04/17 05:10:39;;;;;;;1.53;1.30;;;4.20;99.90;;;;;;5238327;27;20351;-64
2024/04/17 05:13:05;;;;;;;1.27;0.97;;;4.30;99.90;;;;;;5238504;27;20245;-63
2024/04/17 05:15:31;;;;;;;3.97;1.20;;;4.40;99.90;;;;;;5237204;27;20301;-63
2024/04/17 05:17:56;;;;;;;1.93;1.20;;;4.40;99.90;;;;;;5238316;27;20326;-63
2024/04/17 05:20:22;;;;;;;1.37;0.90;;;4.40;99.90;;;;;;5223921;27;20758;-64
2024/04/17 05:22:48;;;;;;;1.80;0.60;;;4.60;99.90;;;;;;5238566;27;20686;-64
2024/04/17 05:25:15;;;;;;;2.40;1.27;;;4.60;99.90;;;;;;5238259;27;20797;-64
2024/04/17 05:27:42;;;;;;;1.30;1.17;;;4.70;99.90;;;;;;5238328;27;20237;-64
2024/04/17 05:30:10;;;;;;;0.80;0.80;;;4.70;99.90;;;;;;5232868;27;20274;-64
2024/04/17 05:32:36;;;;;;;1.33;0.87;;;4.80;99.90;;;;;;5230710;27;20233;-64
2024/04/17 05:35:02;;;;;;;2.23;1.37;;;4.80;99.90;;;;;;5238068;27;20233;-65
2024/04/17 05:37:27;;;;;;;3.23;0.97;;;4.90;99.90;;;;;;5238601;27;20773;-64
2024/04/17 05:39:53;;;;;;;5.60;1.77;;;4.90;99.90;;;;;;5236758;27;20238;-64
2024/04/17 05:42:18;;;;;;;0.70;0.70;;;5.10;99.90;;;;;;5238291;27;20610;-65
2024/04/17 05:44:44;;;;;;;5.27;3.13;;;5.20;99.90;;;;;;5239072;27;20234;-64
2024/04/17 05:47:10;;;;;;;1.33;1.10;;;5.30;99.90;;;;;;5227940;27;20233;-64
2024/04/17 05:49:35;;;;;;;1.63;1.03;;;5.40;99.90;;;;;;5240733;27;20269;-65
2024/04/17 05:52:01;;;;;;;2.37;1.07;;;5.50;99.90;;;;;;5241760;27;20230;-65
2024/04/17 05:54:26;;;;;;;1.20;1.07;;;5.80;99.90;;;;;;5218563;27;20277;-65
2024/04/17 05:56:52;;;;;;;2.20;1.43;;;5.90;99.90;;;;;;5237388;27;20596;-65
2024/04/17 05:59:17;;;;;;;1.27;0.73;;;5.90;99.90;;;;;;5227234;27;20712;-65
2024/04/17 06:01:43;;;;;;;2.33;1.30;;;6.00;99.90;;;;;;5241483;27;20886;-65
2024/04/17 06:04:08;;;;;;;2.50;1.40;;;6.10;99.90;;;;;;5241174;27;20746;-65
2024/04/17 06:06:34;;;;;;;1.37;0.93;;;6.30;99.90;;;;;;5241189;27;20230;-65
2024/04/17 06:09:01;;;;;;;2.30;1.40;;;6.30;99.90;;;;;;5241469;27;20284;-65
2024/04/17 06:11:26;;;;;;;2.17;1.03;;;6.40;99.90;;;;;;5240630;27;20730;-65
2024/04/17 06:13:52;;;;;;;2.43;1.47;;;6.40;99.90;;;;;;5240938;27;20280;-65
2024/04/17 06:16:17;;;;;;;4.97;2.13;;;6.40;99.90;;;;;;5241771;27;20652;-66
2024/04/17 06:18:43;;;;;;;2.40;1.40;;;6.60;99.90;;;;;;5226326;27;20336;-65
2024/04/17 06:21:09;;;;;;;1.73;1.03;;;6.60;99.90;;;;;;5239911;27;20276;-65
2024/04/17 06:23:34;;;;;;;2.30;1.53;;;6.70;99.90;;;;;;5228563;27;20821;-65
2024/04/17 06:26:00;;;;;;;4.30;1.47;;;6.80;99.90;;;;;;5238386;27;20353;-66
2024/04/17 06:28:25;;;;;;;1.67;1.00;;;6.90;99.90;;;;;;5241627;27;20238;-65
2024/04/17 06:30:51;;;;;;;6.00;1.50;;;7.00;99.90;;;;;;5240586;27;20358;-65
2024/04/17 06:33:16;;;;;;;3.53;0.80;;;7.20;99.90;;;;;;5240736;27;20280;-66
2024/04/17 06:35:42;;;;;;;6.77;1.40;;;7.20;99.90;;;;;;5227511;27;20343;-65
2024/04/17 06:38:08;;;;;;;7.77;2.00;;;7.10;99.90;;;;;;5226530;27;20344;-65
2024/04/17 06:40:34;;;;;;;1.23;0.83;;;7.20;99.90;;;;;;5240236;27;20238;-65
2024/04/17 06:42:59;;;;;;;2.13;1.30;;;7.40;99.90;;;;;;5240553;27;20963;-65
2024/04/17 06:45:25;;;;;;;3.27;1.17;;;7.40;99.90;;;;;;5240585;27;20285;-66
2024/04/17 06:47:50;;;;;;;2.30;1.50;;;7.40;99.90;;;;;;5240345;27;20241;-65
2024/04/17 06:50:16;;;;;;;1.43;0.90;;;7.40;99.90;;;;;;5239848;27;20272;-66
2024/04/17 06:52:41;;;;;;;1.83;1.00;;;7.50;99.90;;;;;;5240527;27;20245;-66
2024/04/17 06:55:07;;;;;;;8.27;1.17;;;7.60;99.90;;;;;;5225013;27;20241;-65
2024/04/17 06:57:32;;;;;;;3.83;1.10;;;7.70;99.90;;;;;;5239214;27;20348;-66
2024/04/17 06:59:58;;;;;;;1.47;0.97;;;8.00;99.90;;;;;;5239329;27;20280;-65
2024/04/17 07:02:24;;;;;;;1.03;0.73;;;8.10;99.90;;;;;;5240632;27;20238;-66
2024/04/17 07:04:50;;;;;;;1.70;1.03;;;8.20;99.90;;;;;;5240159;27;20352;-65
2024/04/17 07:07:15;;;;;;;2.60;1.83;;;8.20;99.90;;;;;;5239964;27;20588;-66
2024/04/17 07:09:41;;;;;;;2.03;1.10;;;8.20;99.90;;;;;;5239789;27;20293;-66
2024/04/17 07:12:07;;;;;;;4.83;1.47;;;8.20;99.90;;;;;;5266245;27;20267;-66
2024/04/17 07:14:32;;;;;;;1.33;1.07;;;8.30;99.90;;;;;;5240259;27;20241;-66
2024/04/17 07:16:58;;;;;;;4.17;1.30;;;8.70;99.90;;;;;;5240616;27;20687;-66
2024/04/17 07:19:24;;;;;;;3.23;1.57;;;8.60;99.90;;;;;;5239894;27;20832;-66
2024/04/17 07:21:51;;;;;;;0.90;0.83;;;8.80;99.90;;;;;;5239784;27;20276;-66
2024/04/17 07:24:17;;;;;;;4.60;1.57;;;8.70;99.90;;;;;;5240547;27;20340;-66
2024/04/17 07:26:42;;;;;;;1.50;0.93;;;8.70;99.90;;;;;;5240531;27;20230;-66
2024/04/17 07:29:08;;;;;;;2.67;1.07;;;8.50;99.90;;;;;;5239622;27;20658;-66
2024/04/17 07:31:33;;;;;;;8.83;1.20;;;8.10;99.90;;;;;;5239663;27;20757;-66
2024/04/17 07:33:59;;;;;;;1.23;0.80;;;7.70;99.90;;;;;;5240041;27;20237;-66
2024/04/17 07:36:25;;;;;;;1.37;0.90;;;7.70;99.90;;;;;;5240055;27;20234;-67
2024/04/17 07:38:51;;;;;;;1.73;0.93;;;7.90;99.90;;;;;;5225999;27;20301;-66
2024/04/17 07:41:16;;;;;;;1.57;1.17;;;8.00;99.90;;;;;;5239784;27;20635;-66
2024/04/17 07:43:42;;;;;;;2.70;1.30;;;8.40;99.90;;;;;;5239511;27;20234;-67
2024/04/17 07:46:07;;;;;;;1.67;1.13;;;8.90;99.90;;;;;;5239912;27;20507;-66
2024/04/17 07:48:33;;;;;;;1.10;0.70;;;9.40;99.90;;;;;;5240017;27;20238;-67
2024/04/17 07:50:59;;;;;;;0.90;0.60;;;9.70;99.90;;;;;;5238934;27;20265;-67
2024/04/17 07:53:24;;;;;;;1.23;0.80;;;9.50;99.90;;;;;;5240367;27;20229;-66
2024/04/17 07:55:50;;;;;;;2.00;1.27;;;9.60;99.90;;;;;;5239981;27;20788;-67
2024/04/17 07:58:15;;;;;;;12.33;4.17;;;10.00;99.90;;;;;;5239308;27;20333;-67
2024/04/17 08:00:41;;;;;;;1.97;1.33;;;10.60;99.90;;;;;;5239500;27;20230;-68
2024/04/17 08:03:07;;;;;;;1.90;0.97;;;11.40;99.90;;;;;;5234865;27;20796;-67
2024/04/17 08:05:34;;;;;;;0.73;0.50;;;12.10;99.90;;;;;;5230940;27;20608;-66
2024/04/17 08:07:59;;;;;;;0.80;0.47;;;12.30;99.90;;;;;;5224819;27;20235;-67
2024/04/17 08:10:25;;;;;;;0.80;0.53;;;12.40;99.90;;;;;;5238918;27;20654;-67
2024/04/17 08:12:53;;;;;;;1.40;0.70;;;12.50;99.90;;;;;;5238476;27;20246;-67
2024/04/17 08:15:21;;;;;;;;;;;12.40;99.90;;;;;;5225908;27;20002;-67
2024/04/17 08:17:47;;;;;;;;;;;12.80;99.90;;;;;;5285629;27;19943;-68
2024/04/17 08:20:12;;;;;;;;;;;13.60;99.90;;;;;;5236523;27;19939;-68
2024/04/17 08:22:38;;;;;;;;;;;14.00;99.90;;;;;;5237320;27;20296;-67
2024/04/17 08:25:03;;;;;;;;;;;14.10;99.90;;;;;;5236853;27;20183;-67
2024/04/17 08:27:29;;;;;;;1.02;0.80;;;13.90;99.90;;;;;;5236149;27;19927;-67
2024/04/17 08:29:54;;;;;;;1.37;0.90;;;13.70;99.90;;;;;;5235881;27;20241;-67
2024/04/17 08:32:20;;;;;;;1.07;0.73;;;13.00;99.90;;;;;;5237102;27;20233;-66
2024/04/17 08:34:45;;;;;;;2.47;1.17;;;12.20;99.90;;;;;;5238508;27;20824;-67
2024/04/17 08:37:11;;;;;;;5.73;1.13;;;11.90;99.90;;;;;;5238761;27;20549;-67
2024/04/17 08:39:36;;;;;;;3.83;0.90;;;12.00;99.90;;;;;;5238001;27;20578;-66
2024/04/17 08:42:06;;;;;;;1.43;0.90;;;12.30;99.90;;;;;;5239035;27;20230;-67
2024/04/17 08:44:34;;;;;;;3.77;0.97;;;12.50;99.90;;;;;;5239060;27;20251;-67
2024/04/17 08:47:04;;;;;;;2.43;1.03;;;12.50;99.90;;;;;;5238314;27;20234;-67
2024/04/17 08:49:33;;;;;;;4.00;1.10;;;12.10;99.90;;;;;;5239009;27;20268;-67
2024/04/17 08:52:01;;;;;;;1.43;1.03;;;12.20;99.90;;;;;;5238868;27;20233;-67
2024/04/17 08:54:27;;;;;;;1.97;1.50;;;12.30;99.90;;;;;;5238681;27;20286;-67
2024/04/17 08:56:54;;;;;;;3.50;1.20;;;12.10;99.90;;;;;;5239041;27;20234;-67
2024/04/17 08:59:20;;;;;;;2.37;1.27;;;11.30;99.90;;;;;;5238665;27;20273;-68
2024/04/17 09:01:47;;;;;;;3.47;1.10;;;10.90;99.90;;;;;;5238249;27;20284;-68
2024/04/17 09:04:13;;;;;;;1.50;1.00;;;10.60;99.90;;;;;;5239013;27;20780;-68
2024/04/17 09:06:40;;;;;;;1.13;1.00;;;10.40;99.90;;;;;;5238985;27;20234;-67
2024/04/17 09:09:09;;;;;;;0.73;0.63;;;11.00;99.90;;;;;;5234676;27;20242;-68
2024/04/17 09:11:36;;;;;;;8.63;1.03;;;11.80;99.90;;;;;;5228173;27;20233;-68
2024/04/17 09:14:02;;;;;;;1.57;0.70;;;11.80;99.90;;;;;;5235807;27;20233;-67
2024/04/17 09:16:27;;;;;;;1.63;0.80;;;11.20;99.90;;;;;;5237068;27;20230;-67
2024/04/17 09:18:54;;;;;;;0.90;0.67;;;10.90;99.90;;;;;;5238425;27;20246;-68
2024/04/17 09:21:20;;;;;;;0.83;0.50;;;10.90;99.90;;;;;;5241299;27;20269;-68
2024/04/17 09:23:45;;;;;;;0.80;0.50;;;11.20;99.90;;;;;;5241857;27;20237;-67
2024/04/17 09:26:18;;;;;;;1.53;0.80;;;11.20;99.90;;;;;;5241705;27;20831;-68
2024/04/17 09:28:45;;;;;;;1.70;0.97;;;11.20;99.90;;;;;;5241321;27;20280;-68
2024/04/17 09:31:11;;;;;;;1.00;0.67;;;11.40;99.90;;;;;;5222298;27;20294;-67
2024/04/17 09:33:45;;;;;;;1.03;0.70;;;11.30;99.90;;;;;;5233224;27;20718;-68
2024/04/17 09:36:12;;;;;;;2.90;0.90;;;11.50;99.90;;;;;;5241571;27;20279;-67
2024/04/17 09:38:38;;;;;;;1.50;0.97;;;11.60;99.90;;;;;;5241420;27;20639;-67
2024/04/17 09:41:04;;;;;;;1.93;0.70;;;11.80;99.90;;;;;;5240709;27;20242;-67
2024/04/17 09:43:29;;;;;;;1.30;1.13;;;11.60;99.90;;;;;;5241377;27;20663;-67
2024/04/17 09:45:59;;;;;;;1.30;0.70;;;11.30;99.90;;;;;;5241759;27;20654;-67
2024/04/17 09:48:29;;;;;;;1.23;0.80;;;11.10;99.90;;;;;;5241132;27;20257;-67
2024/04/17 09:51:00;;;;;;;1.73;1.13;;;11.00;99.90;;;;;;5240785;27;20317;-67
2024/04/17 09:53:31;;;;;;;1.83;0.80;;;11.10;99.90;;;;;;5241691;27;20276;-68
2024/04/17 09:55:58;;;;;;;6.50;1.37;;;11.10;99.90;;;;;;5241100;27;20288;-68
2024/04/17 09:58:32;;;;;;;2.57;1.07;;;10.70;99.90;;;;;;5240897;27;20339;-66
2024/04/17 10:01:07;;;;;;;2.13;1.20;;;10.40;99.90;;;;;;5241103;27;20279;-66
2024/04/17 10:03:34;;;;;;;2.93;1.20;;;10.00;99.90;;;;;;5227435;27;20283;-67
2024/04/17 10:06:01;;;;;;;1.53;1.10;;;9.90;99.90;;;;;;5241287;27;20249;-68
2024/04/17 10:08:31;;;;;;;1.43;0.90;;;9.50;99.90;;;;;;5241098;27;20241;-67
2024/04/17 10:10:57;;;;;;;6.17;0.97;;;9.50;99.90;;;;;;5240422;27;20781;-67
2024/04/17 10:13:23;;;;;;;2.87;1.03;;;9.60;99.90;;;;;;5241373;27;20718;-66
2024/04/17 10:15:50;;;;;;;1.97;1.20;;;9.50;99.90;;;;;;5241263;27;20741;-69
2024/04/17 10:18:16;;;;;;;1.10;0.70;;;9.40;99.90;;;;;;5239668;27;20238;-67
2024/04/17 10:20:42;;;;;;;4.63;1.17;;;9.20;99.90;;;;;;5240507;27;20320;-67
2024/04/17 10:23:08;;;;;;;1.20;0.90;;;9.20;99.90;;;;;;5240749;27;20279;-66
2024/04/17 10:25:48;;;;;;;1.93;0.80;;;9.30;99.90;;;;;;5240797;27;20746;-67
2024/04/17 10:28:14;;;;;;;2.00;0.90;;;9.60;99.90;;;;;;5240680;27;20245;-67
2024/04/17 10:30:41;;;;;;;4.97;1.20;;;9.90;99.90;;;;;;5239189;27;20234;-68
2024/04/17 10:33:40;;;;;;;3.37;1.13;;;10.30;99.90;;;;;;5240408;27;20272;-67
2024/04/17 10:36:06;;;;;;;2.03;1.00;;;10.50;99.90;;;;;;5220787;27;20336;-66
2024/04/17 10:38:33;;;;;;;3.33;1.07;;;10.60;99.90;;;;;;5226779;27;20241;-67
2024/04/17 10:41:02;;;;;;;1.93;1.03;;;10.90;99.90;;;;;;5226619;27;20323;-68
2024/04/17 10:43:31;;;;;;;3.27;1.30;;;11.00;99.90;;;;;;5240469;27;20241;-67
2024/04/17 10:46:10;;;;;;;1.53;1.27;;;11.00;99.90;;;;;;5240642;27;20749;-66
2024/04/17 10:48:45;;;;;;;1.80;0.90;;;10.80;99.90;;;;;;5239540;27;20241;-67
2024/04/17 10:51:14;;;;;;;1.30;0.93;;;10.30;99.90;;;;;;5239674;27;20263;-68
2024/04/17 10:53:43;;;;;;;1.03;0.60;;;10.20;99.90;;;;;;5240480;27;20246;-67
2024/04/17 10:56:09;;;;;;;0.60;0.50;;;10.00;99.90;;;;;;5240613;27;20813;-68
2024/04/17 10:58:37;;;;;;;0.60;0.50;;;9.80;99.90;;;;;;5240185;27;20245;-67
2024/04/17 11:01:03;;;;;;;1.40;0.60;;;9.80;99.90;;;;;;5238471;27;20238;-67
2024/04/17 11:03:29;;;;;;;1.67;0.60;;;9.90;99.90;;;;;;5240973;27;20284;-68
2024/04/17 11:05:55;;;;;;;1.17;0.70;;;10.20;99.90;;;;;;5239214;27;20234;-67
2024/04/17 11:08:21;;;;;;;0.40;0.40;;;10.00;99.90;;;;;;5228071;27;20340;-66
2024/04/17 11:10:47;;;;;;;1.60;0.70;;;10.00;99.90;;;;;;5240001;27;20623;-67
2024/04/17 11:13:17;;;;;;;0.43;0.33;;;9.90;99.90;;;;;;5226138;27;20272;-68
2024/04/17 11:15:43;;;;;;;0.70;0.33;;;9.80;99.90;;;;;;5240051;27;20242;-66
2024/04/17 11:18:09;;;;;;;0.27;0.27;;;9.70;99.90;;;;;;5239838;27;20238;-66
2024/04/17 11:20:35;;;;;;;1.00;0.63;;;9.40;99.90;;;;;;5239769;27;20288;-66
2024/04/17 11:23:07;;;;;;;1.27;0.70;;;9.30;99.90;;;;;;5240150;27;20246;-67
2024/04/17 11:25:41;;;;;;;0.90;0.43;;;9.10;99.90;;;;;;5240129;27;20245;-65
2024/04/17 11:28:12;;;;;;;1.17;0.87;;;8.90;99.90;;;;;;5239204;27;20644;-66
2024/04/17 11:30:48;;;;;;;0.67;0.40;;;8.80;99.90;;;;;;5228344;27;20269;-66
2024/04/17 11:33:14;;;;;;;0.70;0.40;;;8.80;99.90;;;;;;5239534;27;20584;-66
2024/04/17 11:35:40;;;;;;;0.70;0.40;;;8.90;99.90;;;;;;5225947;27;20257;-66
2024/04/17 11:38:08;;;;;;;1.47;0.70;;;8.90;99.90;;;;;;5238146;27;20984;-65
2024/04/17 11:40:34;;;;;;;2.33;0.60;;;9.00;99.90;;;;;;5237812;27;20307;-66
2024/04/17 11:42:59;;;;;;;0.77;0.73;;;9.00;99.90;;;;;;5238860;27;20588;-67
2024/04/17 11:45:25;;;;;;;1.27;0.80;;;9.20;99.90;;;;;;5237920;27;20288;-65
2024/04/17 11:47:51;;;;;;;1.27;1.00;;;9.10;99.90;;;;;;5236400;27;20792;-65
2024/04/17 11:50:16;;;;;;;1.23;0.77;;;9.30;99.90;;;;;;5235726;27;20307;-66
2024/04/17 11:52:42;;;;;;;2.43;1.17;;;9.80;99.90;;;;;;5237532;27;20283;-66
2024/04/17 11:55:07;;;;;;;2.13;1.00;;;10.10;99.90;;;;;;5237211;27;20856;-66
2024/04/17 11:57:33;;;;;;;0.57;0.57;;;10.30;99.90;;;;;;5237078;27;20245;-66
2024/04/17 11:59:59;;;;;;;0.80;0.80;;;10.60;99.90;;;;;;5223137;27;20272;-67
2024/04/17 12:02:24;;;;;;;1.47;0.90;;;10.80;99.90;;;;;;5225905;27;20702;-66
2024/04/17 12:04:50;;;;;;;2.67;0.90;;;10.90;99.90;;;;;;5225859;27;20233;-67
2024/04/17 12:07:16;;;;;;;0.97;0.70;;;11.00;99.90;;;;;;5239634;27;20234;-66
2024/04/17 12:09:48;;;;;;;2.03;0.93;;;10.90;99.90;;;;;;5224893;27;20322;-67
2024/04/17 12:12:14;;;;;;;0.93;0.77;;;10.80;99.90;;;;;;5225956;27;20233;-67
2024/04/17 12:14:40;;;;;;;1.47;0.77;;;10.60;99.90;;;;;;5223756;27;20284;-66
2024/04/17 12:17:07;;;;;;;1.63;0.60;;;10.40;99.90;;;;;;5239499;27;20241;-66
2024/04/17 12:19:33;;;;;;;1.50;0.90;;;10.40;99.90;;;;;;5225526;27;20249;-65
2024/04/17 12:21:59;;;;;;;0.73;0.67;;;10.30;99.90;;;;;;5239063;27;20234;-66
2024/04/17 12:26:49;;;;;;;1.63;0.97;;;10.40;99.90;;;;;;5238984;27;20269;-66
2024/04/17 12:27:11;;;;;;;0.87;0.73;;;10.50;99.90;;;;;;5238942;27;20233;-66
2024/04/17 12:29:36;;;;;;;1.23;0.90;;;10.50;99.90;;;;;;5238094;27;20233;-68
2024/04/17 12:32:02;;;;;;;0.77;0.60;;;10.40;99.90;;;;;;5209322;27;20276;-67
2024/04/17 12:34:27;;;;;;;0.67;0.57;;;10.50;99.90;;;;;;5219824;27;20731;-67
2024/04/17 12:36:54;;;;;;;1.20;0.80;;;10.70;99.90;;;;;;5233716;27;20279;-68
2024/04/17 12:39:21;;;;;;;0.80;0.60;;;10.80;99.90;;;;;;5238664;27;20277;-67
2024/04/17 12:41:46;;;;;;;2.43;1.20;;;11.20;99.90;;;;;;5238347;27;20605;-68
2024/04/17 12:44:12;;;;;;;1.33;1.10;;;11.60;99.90;;;;;;5239097;27;20233;-66
2024/04/17 12:46:37;;;;;;;3.07;0.80;;;11.80;99.90;;;;;;5227831;27;20349;-66
2024/04/17 12:49:03;;;;;;;1.10;0.80;;;12.00;99.90;;;;;;5235678;27;20241;-67
2024/04/17 12:51:29;;;;;;;0.87;0.67;;;12.10;99.90;;;;;;5238446;27;20238;-67